sensor_id;sensor_type;location;lat;lon;timestamp;P1;durP1;ratioP1;P2;durP2;ratioP2
22883;SDS011;13386;24.786;110.488;2022-08-19T00:01:16;7.60;;;3.50;;
22883;SDS011;13386;24.786;110.488;2022-08-19T00:04:08;6.53;;;3.45;;
22883;SDS011;13386;24.786;110.488;2022-08-19T00:06:45;9.68;;;3.60;;
22883;SDS011;13386;24.786;110.488;2022-08-19T00:09:30;10.48;;;3.40;;
22883;SDS011;13386;24.786;110.488;2022-08-19T00:12:13;6.22;;;3.13;;
22883;SDS011;13386;24.786;110.488;2022-08-19T00:14:46;9.35;;;3.60;;
22883;SDS011;13386;24.786;110.488;2022-08-19T00:17:34;6.88;;;2.95;;
22883;SDS011;13386;24.786;110.488;2022-08-19T00:20:19;9.32;;;3.58;;
22883;SDS011;13386;24.786;110.488;2022-08-19T00:23:08;9.20;;;3.70;;
22883;SDS011;13386;24.786;110.488;2022-08-19T00:28:49;10.85;;;3.80;;
22883;SDS011;13386;24.786;110.488;2022-08-19T00:31:41;9.32;;;3.20;;
22883;SDS011;13386;24.786;110.488;2022-08-19T00:34:19;6.13;;;3.05;;
22883;SDS011;13386;24.786;110.488;2022-08-19T00:36:59;11.77;;;3.63;;
22883;SDS011;13386;24.786;110.488;2022-08-19T00:39:39;5.55;;;3.08;;
22883;SDS011;13386;24.786;110.488;2022-08-19T00:42:29;7.10;;;3.13;;
22883;SDS011;13386;24.786;110.488;2022-08-19T00:45:14;9.32;;;3.28;;
22883;SDS011;13386;24.786;110.488;2022-08-19T00:48:02;5.40;;;2.50;;
22883;SDS011;13386;24.786;110.488;2022-08-19T00:50:59;6.00;;;2.60;;
22883;SDS011;13386;24.786;110.488;2022-08-19T00:53:38;6.35;;;2.67;;
22883;SDS011;13386;24.786;110.488;2022-08-19T00:56:15;4.40;;;2.47;;
22883;SDS011;13386;24.786;110.488;2022-08-19T00:59:02;4.57;;;2.15;;
22883;SDS011;13386;24.786;110.488;2022-08-19T01:01:44;6.18;;;2.50;;
22883;SDS011;13386;24.786;110.488;2022-08-19T01:04:25;4.10;;;2.33;;
22883;SDS011;13386;24.786;110.488;2022-08-19T01:07:03;5.40;;;2.58;;
22883;SDS011;13386;24.786;110.488;2022-08-19T01:09:42;7.05;;;2.47;;
22883;SDS011;13386;24.786;110.488;2022-08-19T01:12:21;5.82;;;2.50;;
22883;SDS011;13386;24.786;110.488;2022-08-19T01:14:57;5.70;;;2.47;;
22883;SDS011;13386;24.786;110.488;2022-08-19T01:20:42;5.55;;;2.67;;
22883;SDS011;13386;24.786;110.488;2022-08-19T01:23:31;7.97;;;2.60;;
22883;SDS011;13386;24.786;110.488;2022-08-19T01:26:23;6.28;;;2.58;;
22883;SDS011;13386;24.786;110.488;2022-08-19T01:29:13;5.55;;;2.90;;
22883;SDS011;13386;24.786;110.488;2022-08-19T01:32:05;5.82;;;2.88;;
22883;SDS011;13386;24.786;110.488;2022-08-19T01:35:06;5.63;;;2.50;;
22883;SDS011;13386;24.786;110.488;2022-08-19T01:37:43;5.88;;;2.55;;
22883;SDS011;13386;24.786;110.488;2022-08-19T01:43:15;5.85;;;2.70;;
22883;SDS011;13386;24.786;110.488;2022-08-19T01:45:56;6.05;;;2.75;;
22883;SDS011;13386;24.786;110.488;2022-08-19T01:48:44;3.58;;;2.63;;
22883;SDS011;13386;24.786;110.488;2022-08-19T01:51:25;8.82;;;2.67;;
22883;SDS011;13386;24.786;110.488;2022-08-19T01:54:02;5.40;;;2.60;;
22883;SDS011;13386;24.786;110.488;2022-08-19T01:56:38;5.82;;;2.67;;
22883;SDS011;13386;24.786;110.488;2022-08-19T01:59:20;3.77;;;2.47;;
22883;SDS011;13386;24.786;110.488;2022-08-19T02:02:00;5.72;;;2.90;;
22883;SDS011;13386;24.786;110.488;2022-08-19T02:04:40;8.68;;;3.00;;
22883;SDS011;13386;24.786;110.488;2022-08-19T02:07:33;7.93;;;2.92;;
22883;SDS011;13386;24.786;110.488;2022-08-19T02:10:28;6.22;;;3.00;;
22883;SDS011;13386;24.786;110.488;2022-08-19T02:13:09;10.90;;;2.97;;
22883;SDS011;13386;24.786;110.488;2022-08-19T02:16:10;4.97;;;2.72;;
22883;SDS011;13386;24.786;110.488;2022-08-19T02:18:59;4.95;;;2.90;;
22883;SDS011;13386;24.786;110.488;2022-08-19T02:21:45;5.63;;;2.70;;
22883;SDS011;13386;24.786;110.488;2022-08-19T02:24:42;5.88;;;3.10;;
22883;SDS011;13386;24.786;110.488;2022-08-19T02:27:23;9.40;;;3.00;;
22883;SDS011;13386;24.786;110.488;2022-08-19T02:30:16;5.75;;;2.65;;
22883;SDS011;13386;24.786;110.488;2022-08-19T02:33:03;8.48;;;2.90;;
22883;SDS011;13386;24.786;110.488;2022-08-19T02:38:28;5.13;;;2.90;;
22883;SDS011;13386;24.786;110.488;2022-08-19T02:41:06;5.85;;;2.40;;
22883;SDS011;13386;24.786;110.488;2022-08-19T02:43:55;4.70;;;2.78;;
22883;SDS011;13386;24.786;110.488;2022-08-19T02:47:01;6.28;;;2.70;;
22883;SDS011;13386;24.786;110.488;2022-08-19T02:49:50;7.78;;;2.78;;
22883;SDS011;13386;24.786;110.488;2022-08-19T02:52:27;6.53;;;2.67;;
22883;SDS011;13386;24.786;110.488;2022-08-19T02:55:08;5.53;;;2.30;;
22883;SDS011;13386;24.786;110.488;2022-08-19T02:58:10;4.40;;;2.33;;
22883;SDS011;13386;24.786;110.488;2022-08-19T03:00:58;5.13;;;2.50;;
22883;SDS011;13386;24.786;110.488;2022-08-19T03:03:49;7.78;;;2.60;;
22883;SDS011;13386;24.786;110.488;2022-08-19T03:07:03;7.68;;;2.72;;
22883;SDS011;13386;24.786;110.488;2022-08-19T03:10:08;7.60;;;3.03;;
22883;SDS011;13386;24.786;110.488;2022-08-19T03:13:26;5.68;;;2.50;;
22883;SDS011;13386;24.786;110.488;2022-08-19T03:16:34;6.25;;;2.80;;
22883;SDS011;13386;24.786;110.488;2022-08-19T03:20:10;11.63;;;3.28;;
22883;SDS011;13386;24.786;110.488;2022-08-19T03:32:41;5.03;;;2.97;;
22883;SDS011;13386;24.786;110.488;2022-08-19T03:35:16;4.45;;;2.80;;
22883;SDS011;13386;24.786;110.488;2022-08-19T03:37:48;10.07;;;3.10;;
22883;SDS011;13386;24.786;110.488;2022-08-19T03:40:40;4.75;;;2.75;;
22883;SDS011;13386;24.786;110.488;2022-08-19T03:43:39;4.80;;;2.60;;
22883;SDS011;13386;24.786;110.488;2022-08-19T03:46:35;5.40;;;2.70;;
22883;SDS011;13386;24.786;110.488;2022-08-19T03:49:23;4.93;;;2.42;;
22883;SDS011;13386;24.786;110.488;2022-08-19T03:52:06;4.60;;;2.42;;
22883;SDS011;13386;24.786;110.488;2022-08-19T03:54:49;8.65;;;3.05;;
22883;SDS011;13386;24.786;110.488;2022-08-19T03:57:44;6.03;;;2.53;;
22883;SDS011;13386;24.786;110.488;2022-08-19T04:00:20;5.20;;;2.40;;
22883;SDS011;13386;24.786;110.488;2022-08-19T04:03:11;3.72;;;2.10;;
22883;SDS011;13386;24.786;110.488;2022-08-19T04:12:48;51.75;;;7.38;;
22883;SDS011;13386;24.786;110.488;2022-08-19T04:15:38;20.13;;;4.57;;
22883;SDS011;13386;24.786;110.488;2022-08-19T04:23:00;10.10;;;2.80;;
22883;SDS011;13386;24.786;110.488;2022-08-19T04:35:41;4.13;;;2.38;;
22883;SDS011;13386;24.786;110.488;2022-08-19T04:38:30;5.80;;;2.20;;
22883;SDS011;13386;24.786;110.488;2022-08-19T04:41:22;5.00;;;2.20;;
22883;SDS011;13386;24.786;110.488;2022-08-19T04:44:30;6.63;;;2.00;;
22883;SDS011;13386;24.786;110.488;2022-08-19T04:47:20;5.40;;;2.20;;
22883;SDS011;13386;24.786;110.488;2022-08-19T04:50:18;8.70;;;2.25;;
22883;SDS011;13386;24.786;110.488;2022-08-19T04:53:06;4.47;;;1.88;;
22883;SDS011;13386;24.786;110.488;2022-08-19T04:55:55;4.65;;;2.00;;
22883;SDS011;13386;24.786;110.488;2022-08-19T04:58:43;4.72;;;2.40;;
22883;SDS011;13386;24.786;110.488;2022-08-19T05:01:42;2.50;;;1.95;;
22883;SDS011;13386;24.786;110.488;2022-08-19T05:04:55;6.53;;;2.03;;
22883;SDS011;13386;24.786;110.488;2022-08-19T05:07:44;4.10;;;1.80;;
22883;SDS011;13386;24.786;110.488;2022-08-19T05:10:30;3.33;;;1.90;;
22883;SDS011;13386;24.786;110.488;2022-08-19T05:13:39;4.03;;;2.10;;
22883;SDS011;13386;24.786;110.488;2022-08-19T05:16:34;5.07;;;1.92;;
22883;SDS011;13386;24.786;110.488;2022-08-19T05:19:15;5.47;;;2.30;;
22883;SDS011;13386;24.786;110.488;2022-08-19T05:22:14;3.08;;;1.90;;
22883;SDS011;13386;24.786;110.488;2022-08-19T05:25:15;4.88;;;2.03;;
22883;SDS011;13386;24.786;110.488;2022-08-19T05:34:25;4.93;;;1.88;;
22883;SDS011;13386;24.786;110.488;2022-08-19T05:37:12;3.45;;;1.83;;
22883;SDS011;13386;24.786;110.488;2022-08-19T05:40:01;6.45;;;1.88;;
22883;SDS011;13386;24.786;110.488;2022-08-19T05:43:12;3.60;;;1.80;;
22883;SDS011;13386;24.786;110.488;2022-08-19T05:45:59;3.17;;;1.70;;
22883;SDS011;13386;24.786;110.488;2022-08-19T05:48:51;3.72;;;1.83;;
22883;SDS011;13386;24.786;110.488;2022-08-19T05:55:03;5.78;;;1.92;;
22883;SDS011;13386;24.786;110.488;2022-08-19T05:58:08;6.60;;;1.73;;
22883;SDS011;13386;24.786;110.488;2022-08-19T06:01:11;5.18;;;1.73;;
22883;SDS011;13386;24.786;110.488;2022-08-19T06:04:33;3.83;;;2.03;;
22883;SDS011;13386;24.786;110.488;2022-08-19T06:07:29;5.03;;;1.83;;
22883;SDS011;13386;24.786;110.488;2022-08-19T06:14:08;2.70;;;1.58;;
22883;SDS011;13386;24.786;110.488;2022-08-19T06:17:32;4.65;;;1.90;;
22883;SDS011;13386;24.786;110.488;2022-08-19T06:20:26;6.03;;;1.60;;
22883;SDS011;13386;24.786;110.488;2022-08-19T06:23:33;4.22;;;1.75;;
22883;SDS011;13386;24.786;110.488;2022-08-19T06:47:17;3.50;;;1.33;;
22883;SDS011;13386;24.786;110.488;2022-08-19T06:53:49;2.25;;;1.33;;
22883;SDS011;13386;24.786;110.488;2022-08-19T06:56:32;2.40;;;1.20;;
22883;SDS011;13386;24.786;110.488;2022-08-19T06:59:30;4.95;;;1.30;;
22883;SDS011;13386;24.786;110.488;2022-08-19T07:08:46;4.65;;;1.50;;
22883;SDS011;13386;24.786;110.488;2022-08-19T07:12:02;4.70;;;1.80;;
22883;SDS011;13386;24.786;110.488;2022-08-19T07:14:58;3.17;;;1.55;;
22883;SDS011;13386;24.786;110.488;2022-08-19T07:17:51;2.88;;;1.60;;
22883;SDS011;13386;24.786;110.488;2022-08-19T07:20:35;5.63;;;1.67;;
22883;SDS011;13386;24.786;110.488;2022-08-19T07:23:29;4.80;;;1.75;;
22883;SDS011;13386;24.786;110.488;2022-08-19T07:57:22;3.00;;;1.30;;
22883;SDS011;13386;24.786;110.488;2022-08-19T08:00:11;6.03;;;1.80;;
22883;SDS011;13386;24.786;110.488;2022-08-19T08:03:20;2.83;;;1.30;;
22883;SDS011;13386;24.786;110.488;2022-08-19T08:06:22;4.07;;;1.17;;
22883;SDS011;13386;24.786;110.488;2022-08-19T08:22:22;5.47;;;1.60;;
22883;SDS011;13386;24.786;110.488;2022-08-19T08:25:11;3.50;;;1.60;;
22883;SDS011;13386;24.786;110.488;2022-08-19T08:27:49;2.97;;;1.50;;
22883;SDS011;13386;24.786;110.488;2022-08-19T08:30:32;3.72;;;1.70;;
22883;SDS011;13386;24.786;110.488;2022-08-19T08:33:29;3.85;;;1.55;;
22883;SDS011;13386;24.786;110.488;2022-08-19T08:36:24;4.15;;;1.52;;
22883;SDS011;13386;24.786;110.488;2022-08-19T08:42:13;3.40;;;1.75;;
22883;SDS011;13386;24.786;110.488;2022-08-19T08:45:18;3.97;;;1.50;;
22883;SDS011;13386;24.786;110.488;2022-08-19T08:48:18;2.70;;;1.35;;
22883;SDS011;13386;24.786;110.488;2022-08-19T08:50:57;2.03;;;1.30;;
22883;SDS011;13386;24.786;110.488;2022-08-19T08:53:45;4.25;;;1.50;;
22883;SDS011;13386;24.786;110.488;2022-08-19T08:56:38;3.67;;;1.50;;
22883;SDS011;13386;24.786;110.488;2022-08-19T09:08:26;6.93;;;2.30;;
22883;SDS011;13386;24.786;110.488;2022-08-19T09:11:20;6.75;;;1.92;;
22883;SDS011;13386;24.786;110.488;2022-08-19T09:14:32;3.67;;;1.80;;
22883;SDS011;13386;24.786;110.488;2022-08-19T09:17:35;7.82;;;2.15;;
22883;SDS011;13386;24.786;110.488;2022-08-19T09:20:29;8.23;;;2.00;;
22883;SDS011;13386;24.786;110.488;2022-08-19T09:23:24;6.75;;;2.05;;
22883;SDS011;13386;24.786;110.488;2022-08-19T09:26:25;4.60;;;1.80;;
22883;SDS011;13386;24.786;110.488;2022-08-19T09:29:11;3.80;;;1.52;;
22883;SDS011;13386;24.786;110.488;2022-08-19T09:32:09;5.60;;;2.00;;
22883;SDS011;13386;24.786;110.488;2022-08-19T09:35:00;5.40;;;1.40;;
22883;SDS011;13386;24.786;110.488;2022-08-19T09:38:12;6.97;;;1.95;;
22883;SDS011;13386;24.786;110.488;2022-08-19T09:55:45;5.50;;;1.63;;
22883;SDS011;13386;24.786;110.488;2022-08-19T09:58:21;9.77;;;2.10;;
22883;SDS011;13386;24.786;110.488;2022-08-19T10:01:04;3.30;;;1.70;;
22883;SDS011;13386;24.786;110.488;2022-08-19T10:04:03;5.10;;;1.70;;
22883;SDS011;13386;24.786;110.488;2022-08-19T10:06:46;4.10;;;1.58;;
22883;SDS011;13386;24.786;110.488;2022-08-19T10:09:50;4.65;;;1.63;;
22883;SDS011;13386;24.786;110.488;2022-08-19T10:12:28;6.40;;;1.70;;
22883;SDS011;13386;24.786;110.488;2022-08-19T10:15:25;5.65;;;1.52;;
22883;SDS011;13386;24.786;110.488;2022-08-19T10:18:12;5.68;;;1.90;;
22883;SDS011;13386;24.786;110.488;2022-08-19T10:27:13;7.47;;;2.03;;
22883;SDS011;13386;24.786;110.488;2022-08-19T10:33:30;4.40;;;2.00;;
22883;SDS011;13386;24.786;110.488;2022-08-19T10:36:30;4.25;;;1.95;;
22883;SDS011;13386;24.786;110.488;2022-08-19T10:39:45;4.32;;;1.70;;
22883;SDS011;13386;24.786;110.488;2022-08-19T10:43:23;9.70;;;2.05;;
22883;SDS011;13386;24.786;110.488;2022-08-19T10:45:57;7.60;;;2.08;;
22883;SDS011;13386;24.786;110.488;2022-08-19T10:48:50;4.78;;;2.17;;
22883;SDS011;13386;24.786;110.488;2022-08-19T10:51:35;5.88;;;2.28;;
22883;SDS011;13386;24.786;110.488;2022-08-19T10:54:28;4.57;;;2.05;;
22883;SDS011;13386;24.786;110.488;2022-08-19T10:57:40;4.00;;;2.00;;
22883;SDS011;13386;24.786;110.488;2022-08-19T11:00:22;4.40;;;1.85;;
22883;SDS011;13386;24.786;110.488;2022-08-19T11:03:07;4.07;;;1.85;;
22883;SDS011;13386;24.786;110.488;2022-08-19T11:06:25;4.68;;;2.00;;
22883;SDS011;13386;24.786;110.488;2022-08-19T11:09:19;3.97;;;1.77;;
22883;SDS011;13386;24.786;110.488;2022-08-19T11:11:56;3.95;;;1.90;;
22883;SDS011;13386;24.786;110.488;2022-08-19T11:15:40;6.05;;;1.83;;
22883;SDS011;13386;24.786;110.488;2022-08-19T11:18:40;4.20;;;1.60;;
22883;SDS011;13386;24.786;110.488;2022-08-19T11:29:28;8.73;;;2.22;;
22883;SDS011;13386;24.786;110.488;2022-08-19T11:32:14;6.88;;;1.95;;
22883;SDS011;13386;24.786;110.488;2022-08-19T11:35:08;7.30;;;2.30;;
22883;SDS011;13386;24.786;110.488;2022-08-19T11:37:44;6.85;;;2.20;;
22883;SDS011;13386;24.786;110.488;2022-08-19T11:40:33;6.00;;;2.10;;
22883;SDS011;13386;24.786;110.488;2022-08-19T11:43:30;5.22;;;2.10;;
22883;SDS011;13386;24.786;110.488;2022-08-19T11:46:22;8.23;;;2.50;;
22883;SDS011;13386;24.786;110.488;2022-08-19T11:48:59;8.48;;;2.55;;
22883;SDS011;13386;24.786;110.488;2022-08-19T11:51:57;10.25;;;2.85;;
22883;SDS011;13386;24.786;110.488;2022-08-19T11:54:44;9.75;;;2.92;;
22883;SDS011;13386;24.786;110.488;2022-08-19T11:57:22;9.23;;;3.30;;
22883;SDS011;13386;24.786;110.488;2022-08-19T12:00:10;27.67;;;9.52;;
22883;SDS011;13386;24.786;110.488;2022-08-19T12:03:03;28.10;;;9.13;;
22883;SDS011;13386;24.786;110.488;2022-08-19T12:06:04;20.85;;;5.95;;
22883;SDS011;13386;24.786;110.488;2022-08-19T12:09:06;19.52;;;6.05;;
22883;SDS011;13386;24.786;110.488;2022-08-19T12:12:05;27.42;;;7.93;;
22883;SDS011;13386;24.786;110.488;2022-08-19T12:15:08;29.98;;;9.15;;
22883;SDS011;13386;24.786;110.488;2022-08-19T12:17:56;51.00;;;15.90;;
22883;SDS011;13386;24.786;110.488;2022-08-19T12:20:40;33.00;;;11.00;;
22883;SDS011;13386;24.786;110.488;2022-08-19T12:27:17;34.83;;;12.10;;
22883;SDS011;13386;24.786;110.488;2022-08-19T12:32:53;32.83;;;10.40;;
22883;SDS011;13386;24.786;110.488;2022-08-19T12:38:52;26.70;;;9.85;;
22883;SDS011;13386;24.786;110.488;2022-08-19T12:41:39;27.25;;;8.68;;
22883;SDS011;13386;24.786;110.488;2022-08-19T12:44:32;27.52;;;9.23;;
22883;SDS011;13386;24.786;110.488;2022-08-19T12:47:09;31.10;;;10.73;;
22883;SDS011;13386;24.786;110.488;2022-08-19T12:49:54;29.42;;;10.00;;
22883;SDS011;13386;24.786;110.488;2022-08-19T12:52:32;26.52;;;9.52;;
22883;SDS011;13386;24.786;110.488;2022-08-19T12:55:45;28.63;;;9.50;;
22883;SDS011;13386;24.786;110.488;2022-08-19T12:58:24;25.23;;;10.00;;
22883;SDS011;13386;24.786;110.488;2022-08-19T13:01:11;27.92;;;10.65;;
22883;SDS011;13386;24.786;110.488;2022-08-19T13:04:00;34.42;;;11.48;;
22883;SDS011;13386;24.786;110.488;2022-08-19T13:06:49;32.70;;;11.23;;
22883;SDS011;13386;24.786;110.488;2022-08-19T13:09:37;32.15;;;11.25;;
22883;SDS011;13386;24.786;110.488;2022-08-19T13:12:21;31.10;;;10.93;;
22883;SDS011;13386;24.786;110.488;2022-08-19T13:15:19;27.33;;;10.43;;
22883;SDS011;13386;24.786;110.488;2022-08-19T13:21:13;30.48;;;11.18;;
22883;SDS011;13386;24.786;110.488;2022-08-19T13:24:04;30.20;;;11.23;;
22883;SDS011;13386;24.786;110.488;2022-08-19T13:26:51;35.80;;;12.85;;
22883;SDS011;13386;24.786;110.488;2022-08-19T13:30:01;30.38;;;12.13;;
22883;SDS011;13386;24.786;110.488;2022-08-19T13:32:51;32.05;;;10.63;;
22883;SDS011;13386;24.786;110.488;2022-08-19T13:39:21;23.15;;;9.35;;
22883;SDS011;13386;24.786;110.488;2022-08-19T13:42:13;24.25;;;9.23;;
22883;SDS011;13386;24.786;110.488;2022-08-19T13:45:16;24.20;;;8.73;;
22883;SDS011;13386;24.786;110.488;2022-08-19T13:48:31;26.67;;;9.15;;
22883;SDS011;13386;24.786;110.488;2022-08-19T13:51:26;24.33;;;9.25;;
22883;SDS011;13386;24.786;110.488;2022-08-19T13:54:09;31.52;;;10.98;;
22883;SDS011;13386;24.786;110.488;2022-08-19T13:57:08;29.55;;;10.48;;
22883;SDS011;13386;24.786;110.488;2022-08-19T13:59:56;35.47;;;10.85;;
22883;SDS011;13386;24.786;110.488;2022-08-19T14:02:59;31.55;;;11.07;;
22883;SDS011;13386;24.786;110.488;2022-08-19T14:05:47;28.30;;;10.15;;
22883;SDS011;13386;24.786;110.488;2022-08-19T14:08:43;32.40;;;11.32;;
22883;SDS011;13386;24.786;110.488;2022-08-19T14:11:22;28.83;;;10.18;;
22883;SDS011;13386;24.786;110.488;2022-08-19T14:20:27;25.15;;;9.93;;
22883;SDS011;13386;24.786;110.488;2022-08-19T14:23:06;23.90;;;9.43;;
22883;SDS011;13386;24.786;110.488;2022-08-19T14:25:54;23.27;;;8.57;;
22883;SDS011;13386;24.786;110.488;2022-08-19T14:29:08;26.70;;;9.07;;
22883;SDS011;13386;24.786;110.488;2022-08-19T14:32:00;23.15;;;8.57;;
22883;SDS011;13386;24.786;110.488;2022-08-19T14:35:05;21.23;;;7.85;;
22883;SDS011;13386;24.786;110.488;2022-08-19T14:37:56;19.17;;;8.20;;
22883;SDS011;13386;24.786;110.488;2022-08-19T14:40:36;24.70;;;7.68;;
22883;SDS011;13386;24.786;110.488;2022-08-19T14:43:30;17.27;;;7.23;;
22883;SDS011;13386;24.786;110.488;2022-08-19T14:46:14;19.83;;;7.05;;
22883;SDS011;13386;24.786;110.488;2022-08-19T14:49:19;19.60;;;6.97;;
22883;SDS011;13386;24.786;110.488;2022-08-19T14:52:20;19.08;;;6.65;;
22883;SDS011;13386;24.786;110.488;2022-08-19T14:58:53;21.20;;;6.80;;
22883;SDS011;13386;24.786;110.488;2022-08-19T15:01:29;15.88;;;6.80;;
22883;SDS011;13386;24.786;110.488;2022-08-19T15:04:18;15.93;;;6.78;;
22883;SDS011;13386;24.786;110.488;2022-08-19T15:07:22;17.42;;;6.38;;
22883;SDS011;13386;24.786;110.488;2022-08-19T15:10:13;16.55;;;6.50;;
22883;SDS011;13386;24.786;110.488;2022-08-19T15:13:12;22.17;;;6.65;;
22883;SDS011;13386;24.786;110.488;2022-08-19T15:15:52;17.73;;;6.70;;
22883;SDS011;13386;24.786;110.488;2022-08-19T15:19:07;20.23;;;6.22;;
22883;SDS011;13386;24.786;110.488;2022-08-19T15:22:17;20.40;;;6.65;;
22883;SDS011;13386;24.786;110.488;2022-08-19T15:25:05;19.17;;;6.88;;
22883;SDS011;13386;24.786;110.488;2022-08-19T15:31:03;16.23;;;6.50;;
22883;SDS011;13386;24.786;110.488;2022-08-19T15:34:06;19.05;;;7.80;;
22883;SDS011;13386;24.786;110.488;2022-08-19T15:37:29;24.83;;;7.68;;
22883;SDS011;13386;24.786;110.488;2022-08-19T15:40:09;18.38;;;7.07;;
22883;SDS011;13386;24.786;110.488;2022-08-19T15:42:56;18.67;;;7.18;;
22883;SDS011;13386;24.786;110.488;2022-08-19T15:46:00;17.05;;;6.97;;
22883;SDS011;13386;24.786;110.488;2022-08-19T15:48:42;17.38;;;6.47;;
22883;SDS011;13386;24.786;110.488;2022-08-19T15:54:33;16.40;;;6.05;;
22883;SDS011;13386;24.786;110.488;2022-08-19T15:57:12;16.80;;;6.03;;
22883;SDS011;13386;24.786;110.488;2022-08-19T16:06:41;19.08;;;5.93;;
22883;SDS011;13386;24.786;110.488;2022-08-19T16:09:33;15.55;;;5.60;;
22883;SDS011;13386;24.786;110.488;2022-08-19T16:15:26;12.00;;;5.00;;
22883;SDS011;13386;24.786;110.488;2022-08-19T16:18:34;13.93;;;5.03;;
22883;SDS011;13386;24.786;110.488;2022-08-19T16:21:23;19.00;;;4.88;;
22883;SDS011;13386;24.786;110.488;2022-08-19T16:57:26;13.25;;;4.38;;
22883;SDS011;13386;24.786;110.488;2022-08-19T17:00:45;9.00;;;3.93;;
22883;SDS011;13386;24.786;110.488;2022-08-19T17:03:33;10.80;;;4.13;;
22883;SDS011;13386;24.786;110.488;2022-08-19T17:06:20;12.90;;;4.80;;
22883;SDS011;13386;24.786;110.488;2022-08-19T17:09:59;10.52;;;4.85;;
22883;SDS011;13386;24.786;110.488;2022-08-19T17:12:58;10.43;;;4.55;;
22883;SDS011;13386;24.786;110.488;2022-08-19T17:15:39;12.15;;;4.40;;
22883;SDS011;13386;24.786;110.488;2022-08-19T17:18:42;13.05;;;4.90;;
22883;SDS011;13386;24.786;110.488;2022-08-19T17:21:29;11.88;;;4.63;;
22883;SDS011;13386;24.786;110.488;2022-08-19T17:24:16;12.40;;;4.93;;
22883;SDS011;13386;24.786;110.488;2022-08-19T17:30:43;14.23;;;5.03;;
22883;SDS011;13386;24.786;110.488;2022-08-19T17:39:41;13.57;;;4.75;;
22883;SDS011;13386;24.786;110.488;2022-08-19T17:42:29;11.25;;;4.70;;
22883;SDS011;13386;24.786;110.488;2022-08-19T17:45:08;12.73;;;4.60;;
22883;SDS011;13386;24.786;110.488;2022-08-19T17:48:25;12.70;;;4.97;;
22883;SDS011;13386;24.786;110.488;2022-08-19T17:51:15;10.40;;;4.63;;
22883;SDS011;13386;24.786;110.488;2022-08-19T17:54:04;10.13;;;4.65;;
22883;SDS011;13386;24.786;110.488;2022-08-19T17:56:47;12.38;;;4.30;;
22883;SDS011;13386;24.786;110.488;2022-08-19T17:59:29;10.82;;;4.70;;
22883;SDS011;13386;24.786;110.488;2022-08-19T18:02:26;9.93;;;4.20;;
22883;SDS011;13386;24.786;110.488;2022-08-19T18:08:08;13.80;;;4.45;;
22883;SDS011;13386;24.786;110.488;2022-08-19T18:10:47;11.35;;;4.75;;
22883;SDS011;13386;24.786;110.488;2022-08-19T18:13:40;9.38;;;4.32;;
22883;SDS011;13386;24.786;110.488;2022-08-19T18:16:36;9.90;;;4.10;;
22883;SDS011;13386;24.786;110.488;2022-08-19T18:19:41;9.93;;;4.20;;
22883;SDS011;13386;24.786;110.488;2022-08-19T18:22:30;15.18;;;4.85;;
22883;SDS011;13386;24.786;110.488;2022-08-19T18:31:53;11.40;;;4.45;;
22883;SDS011;13386;24.786;110.488;2022-08-19T18:34:42;11.88;;;4.30;;
22883;SDS011;13386;24.786;110.488;2022-08-19T18:37:27;13.20;;;4.75;;
22883;SDS011;13386;24.786;110.488;2022-08-19T18:40:12;11.60;;;5.05;;
22883;SDS011;13386;24.786;110.488;2022-08-19T18:43:25;14.90;;;5.00;;
22883;SDS011;13386;24.786;110.488;2022-08-19T18:50:07;12.63;;;4.07;;
22883;SDS011;13386;24.786;110.488;2022-08-19T18:52:54;9.43;;;4.00;;
22883;SDS011;13386;24.786;110.488;2022-08-19T18:55:54;8.80;;;4.10;;
22883;SDS011;13386;24.786;110.488;2022-08-19T18:58:46;10.88;;;4.20;;
22883;SDS011;13386;24.786;110.488;2022-08-19T19:01:55;23.90;;;4.15;;
22883;SDS011;13386;24.786;110.488;2022-08-19T19:04:42;11.38;;;4.28;;
22883;SDS011;13386;24.786;110.488;2022-08-19T19:10:28;9.35;;;3.83;;
22883;SDS011;13386;24.786;110.488;2022-08-19T19:13:08;11.48;;;4.15;;
22883;SDS011;13386;24.786;110.488;2022-08-19T19:16:02;11.98;;;3.90;;
22883;SDS011;13386;24.786;110.488;2022-08-19T19:18:46;12.75;;;4.15;;
22883;SDS011;13386;24.786;110.488;2022-08-19T19:21:52;10.18;;;4.07;;
22883;SDS011;13386;24.786;110.488;2022-08-19T19:24:48;9.75;;;3.95;;
22883;SDS011;13386;24.786;110.488;2022-08-19T19:28:08;10.82;;;4.05;;
22883;SDS011;13386;24.786;110.488;2022-08-19T19:30:57;10.18;;;4.22;;
22883;SDS011;13386;24.786;110.488;2022-08-19T19:33:39;11.48;;;4.38;;
22883;SDS011;13386;24.786;110.488;2022-08-19T19:36:38;11.70;;;4.38;;
22883;SDS011;13386;24.786;110.488;2022-08-19T19:39:26;9.35;;;4.68;;
22883;SDS011;13386;24.786;110.488;2022-08-19T19:42:30;10.82;;;4.03;;
22883;SDS011;13386;24.786;110.488;2022-08-19T19:45:28;13.50;;;4.38;;
22883;SDS011;13386;24.786;110.488;2022-08-19T19:48:09;11.70;;;4.82;;
22883;SDS011;13386;24.786;110.488;2022-08-19T19:54:29;9.50;;;4.53;;
22883;SDS011;13386;24.786;110.488;2022-08-19T19:57:14;10.38;;;4.15;;
22883;SDS011;13386;24.786;110.488;2022-08-19T20:00:15;10.48;;;3.88;;
22883;SDS011;13386;24.786;110.488;2022-08-19T20:03:18;12.25;;;4.10;;
22883;SDS011;13386;24.786;110.488;2022-08-19T20:05:59;10.90;;;4.15;;
22883;SDS011;13386;24.786;110.488;2022-08-19T20:08:48;10.40;;;3.75;;
22883;SDS011;13386;24.786;110.488;2022-08-19T20:11:50;12.85;;;4.03;;
22883;SDS011;13386;24.786;110.488;2022-08-19T20:14:53;11.82;;;4.55;;
22883;SDS011;13386;24.786;110.488;2022-08-19T20:17:53;9.43;;;3.90;;
22883;SDS011;13386;24.786;110.488;2022-08-19T20:20:51;10.98;;;3.80;;
22883;SDS011;13386;24.786;110.488;2022-08-19T20:23:43;10.30;;;3.92;;
22883;SDS011;13386;24.786;110.488;2022-08-19T20:26:33;12.75;;;3.83;;
22883;SDS011;13386;24.786;110.488;2022-08-19T20:32:41;10.50;;;3.90;;
22883;SDS011;13386;24.786;110.488;2022-08-19T20:35:25;11.68;;;3.80;;
22883;SDS011;13386;24.786;110.488;2022-08-19T20:38:21;7.70;;;3.65;;
22883;SDS011;13386;24.786;110.488;2022-08-19T20:41:40;11.10;;;4.20;;
22883;SDS011;13386;24.786;110.488;2022-08-19T20:44:52;12.38;;;3.85;;
22883;SDS011;13386;24.786;110.488;2022-08-19T20:47:57;12.13;;;3.80;;
22883;SDS011;13386;24.786;110.488;2022-08-19T20:50:52;9.70;;;3.40;;
22883;SDS011;13386;24.786;110.488;2022-08-19T20:53:32;11.25;;;3.75;;
22883;SDS011;13386;24.786;110.488;2022-08-19T20:56:32;9.65;;;3.70;;
22883;SDS011;13386;24.786;110.488;2022-08-19T20:59:08;10.15;;;3.88;;
22883;SDS011;13386;24.786;110.488;2022-08-19T21:02:09;8.70;;;3.80;;
22883;SDS011;13386;24.786;110.488;2022-08-19T21:05:55;7.28;;;3.70;;
22883;SDS011;13386;24.786;110.488;2022-08-19T21:08:34;9.52;;;3.20;;
22883;SDS011;13386;24.786;110.488;2022-08-19T21:14:16;10.05;;;3.60;;
22883;SDS011;13386;24.786;110.488;2022-08-19T21:16:57;7.60;;;3.40;;
22883;SDS011;13386;24.786;110.488;2022-08-19T21:19:41;9.32;;;3.70;;
22883;SDS011;13386;24.786;110.488;2022-08-19T21:22:23;8.45;;;3.50;;
22883;SDS011;13386;24.786;110.488;2022-08-19T21:25:02;10.55;;;3.53;;
22883;SDS011;13386;24.786;110.488;2022-08-19T21:27:41;6.03;;;3.40;;